Terminal Aerodrome Forecast
Issued by NWS Wilmington, OH

Current Version | Previous Version | Graphics & Text | Print | Product List | Glossary On
Versions: 1 2 3 4 5 6 7 8 9 10 11 12 13 14 15
142
FTUS41 KILN 241737 AAA
TAFDAY
TAF AMD
KDAY 241737Z 2418/2518 27011KT P6SM SCT040
     FM242300 24006KT P6SM SCT250
     FM251600 25010KT P6SM SCT040=

USA.gov is the U.S. government's official web portal to all federal, state and local government web resources and services.